createdAt,value
2019-04-22T00:02:03.908Z,101381.05
2019-04-22T00:04:49.902Z,101379.67
2019-04-22T00:07:28.472Z,101379.41
2019-04-22T00:10:09.539Z,101373.50
2019-04-22T00:12:44.023Z,101383.93
2019-04-22T00:15:08.017Z,101379.40
2019-04-22T00:20:14.790Z,101376.98
2019-04-22T00:22:47.971Z,101372.95
2019-04-22T00:25:32.951Z,101372.90
2019-04-22T00:33:07.601Z,101368.95
2019-04-22T00:35:41.333Z,101364.78
2019-04-22T00:38:21.373Z,101367.25
2019-04-22T00:40:56.304Z,101359.16
2019-04-22T00:43:25.968Z,101360.36
2019-04-22T00:45:56.252Z,101367.84
2019-04-22T00:48:37.957Z,101358.83
2019-04-22T00:51:08.870Z,101360.60
2019-04-22T00:53:34.239Z,101364.02
2019-04-22T00:56:14.416Z,101364.36
2019-04-22T00:59:07.078Z,101368.69
2019-04-22T01:01:18.880Z,101365.52
2019-04-22T01:03:58.412Z,101363.21
2019-04-22T01:06:27.064Z,101366.21
2019-04-22T01:09:02.030Z,101369.16
2019-04-22T01:11:29.508Z,101364.61
2019-04-22T01:14:04.801Z,101364.97
2019-04-22T01:16:37.964Z,101351.98
2019-04-22T01:19:07.261Z,101355.84
2019-04-22T01:21:42.156Z,101358.42
2019-04-22T01:24:14.020Z,101360.09
2019-04-22T01:26:41.804Z,101357.29
2019-04-22T01:29:08.278Z,101348.82
2019-04-22T01:31:33.067Z,101347.28
2019-04-22T01:34:18.990Z,101347.28
2019-04-22T01:36:52.881Z,101347.62
2019-04-22T01:39:37.648Z,101342.09
2019-04-22T01:42:14.126Z,101345.44
2019-04-22T01:44:45.242Z,101347.86
2019-04-22T01:47:23.230Z,101344.63
2019-04-22T01:49:47.130Z,101343.58
2019-04-22T01:55:01.662Z,101338.01
2019-04-22T01:57:22.993Z,101337.44
2019-04-22T01:59:56.125Z,101336.06
2019-04-22T02:02:38.413Z,101327.14
2019-04-22T02:05:14.601Z,101330.13
2019-04-22T02:07:41.805Z,101330.83
2019-04-22T02:10:20.105Z,101331.55
2019-04-22T02:12:45.903Z,101332.71
2019-04-22T02:15:17.012Z,101325.00
2019-04-22T02:17:58.047Z,101324.42
2019-04-22T02:20:25.410Z,101326.03
2019-04-22T02:26:09.428Z,101315.20
2019-04-22T02:28:42.660Z,101314.63
2019-04-22T02:31:25.819Z,101317.27
2019-04-22T02:46:53.309Z,101300.98
2019-04-22T02:49:22.026Z,101297.23
2019-04-22T02:54:36.454Z,101294.02
2019-04-22T03:01:47.391Z,101284.14
2019-04-22T03:06:47.310Z,101278.46
2019-04-22T03:09:29.927Z,101275.69
2019-04-22T03:14:46.034Z,101271.80
2019-04-22T03:17:17.672Z,101275.20
2019-04-22T03:19:57.201Z,101273.23
2019-04-22T03:22:20.908Z,101273.51
2019-04-22T03:24:55.941Z,101268.44
2019-04-22T03:27:30.085Z,101266.88
2019-04-22T03:40:30.486Z,101268.92
2019-04-22T03:42:59.770Z,101267.46
2019-04-22T03:48:05.410Z,101265.50
2019-04-22T03:50:37.325Z,101265.91
2019-04-22T03:55:39.083Z,101264.37
2019-04-22T03:58:21.907Z,101266.30
2019-04-22T04:03:12.100Z,101269.30
2019-04-22T04:05:54.196Z,101271.80
2019-04-22T04:08:26.360Z,101272.20
2019-04-22T04:10:53.358Z,101268.32
2019-04-22T04:16:04.709Z,101270.82
2019-04-22T04:19:02.603Z,101265.88
2019-04-22T04:21:24.540Z,101264.42
2019-04-22T04:24:05.687Z,101271.34
2019-04-22T04:26:16.973Z,101274.33
2019-04-22T04:33:54.108Z,101274.39
2019-04-22T04:39:00.358Z,101275.58
2019-04-22T04:41:57.053Z,101275.06
2019-04-22T04:44:14.572Z,101281.33
2019-04-22T04:49:18.198Z,101280.33
2019-04-22T04:51:47.198Z,101282.48
2019-04-22T04:54:30.571Z,101281.64
2019-04-22T04:57:07.458Z,101283.30
2019-04-22T05:02:06.400Z,101287.52
2019-04-22T05:07:12.760Z,101280.45
2019-04-22T05:17:18.765Z,101275.05
2019-04-22T05:19:47.396Z,101276.44
2019-04-22T05:22:21.387Z,101282.78
2019-04-22T05:24:51.866Z,101275.45
2019-04-22T05:27:28.136Z,101279.61
2019-04-22T05:32:35.657Z,101291.95
2019-04-22T05:37:32.816Z,101293.98
2019-04-22T05:40:16.698Z,101290.69
2019-04-22T05:42:39.420Z,101297.45
2019-04-22T05:45:14.873Z,101289.27
2019-04-22T05:47:50.506Z,101289.41
2019-04-22T05:50:19.017Z,101288.73
2019-04-22T05:52:51.541Z,101287.56
2019-04-22T05:55:33.173Z,101275.92
2019-04-22T06:00:40.545Z,101278.02
2019-04-22T06:03:10.454Z,101271.70
2019-04-22T06:05:45.278Z,101269.77
2019-04-22T06:08:13.247Z,101275.34
2019-04-22T06:10:51.891Z,101267.73
2019-04-22T06:13:14.673Z,101273.31
2019-04-22T06:15:46.724Z,101274.42
2019-04-22T06:18:27.087Z,101269.06
2019-04-22T06:21:07.475Z,101273.25
2019-04-22T06:28:40.771Z,101280.05
2019-04-22T06:31:16.048Z,101277.27
2019-04-22T06:33:48.100Z,101279.78
2019-04-22T06:36:18.011Z,101271.70
2019-04-22T06:38:46.222Z,101275.03
2019-04-22T06:41:27.292Z,101271.41
2019-04-22T06:43:58.462Z,101271.31
2019-04-22T06:49:03.155Z,101272.84
2019-04-22T06:51:37.541Z,101266.06
2019-04-22T06:54:07.547Z,101257.98
2019-04-22T06:56:42.619Z,101253.91
2019-04-22T06:59:14.332Z,101256.87
2019-04-22T07:01:54.764Z,101256.29
2019-04-22T07:04:16.617Z,101255.29
2019-04-22T07:06:57.601Z,101241.64
2019-04-22T07:11:58.838Z,101251.75
2019-04-22T07:14:38.447Z,101253.33
2019-04-22T07:17:07.417Z,101255.33
2019-04-22T07:19:40.898Z,101257.84
2019-04-22T07:22:19.843Z,101257.23
2019-04-22T07:24:47.668Z,101254.42
2019-04-22T07:29:55.393Z,101254.22
2019-04-22T07:32:40.018Z,101255.38
2019-04-22T07:35:15.369Z,101257.88
2019-04-22T07:37:41.957Z,101255.11
2019-04-22T07:40:23.525Z,101259.84
2019-04-22T07:42:48.149Z,101254.37
2019-04-22T07:45:26.569Z,101247.15
2019-04-22T07:48:08.026Z,101246.52
2019-04-22T07:50:37.724Z,101242.38
2019-04-22T07:53:02.926Z,101245.80
2019-04-22T07:55:36.825Z,101236.30
2019-04-22T07:58:05.257Z,101237.89
2019-04-22T08:00:40.138Z,101231.48
2019-04-22T08:03:22.393Z,101227.81
2019-04-22T08:10:58.010Z,101222.89
2019-04-22T08:13:31.055Z,101223.19
2019-04-22T08:15:58.791Z,101223.45
2019-04-22T08:18:35.973Z,101219.33
2019-04-22T08:21:07.541Z,101222.66
2019-04-22T08:23:46.421Z,101224.23
2019-04-22T08:26:16.815Z,101221.82
2019-04-22T08:28:45.838Z,101218.99
2019-04-22T08:31:20.347Z,101225.00
2019-04-22T08:33:54.625Z,101234.09
2019-04-22T08:36:26.363Z,101226.77
2019-04-22T08:39:16.760Z,101216.29
2019-04-22T08:44:17.374Z,101222.11
2019-04-22T08:49:06.510Z,101216.17
2019-04-22T08:51:42.495Z,101220.84
2019-04-22T08:54:32.388Z,101218.33
2019-04-22T08:56:45.833Z,101215.85
2019-04-22T08:59:19.411Z,101214.21
2019-04-22T09:01:56.855Z,101205.95
2019-04-22T09:04:23.333Z,101204.41
2019-04-22T09:09:42.358Z,101198.17
2019-04-22T09:12:08.399Z,101192.14
2019-04-22T09:14:43.418Z,101198.55
2019-04-22T09:17:14.777Z,101199.66
2019-04-22T09:19:48.087Z,101204.27
2019-04-22T09:22:16.972Z,101198.16
2019-04-22T09:24:51.774Z,101192.55
2019-04-22T09:27:32.969Z,101183.77
2019-04-22T09:29:58.514Z,101191.92
2019-04-22T09:32:36.413Z,101196.50
2019-04-22T09:35:06.043Z,101183.27
2019-04-22T09:37:39.325Z,101185.20
2019-04-22T09:40:22.279Z,101192.91
2019-04-22T09:42:43.722Z,101183.23
2019-04-22T09:45:15.464Z,101179.78
2019-04-22T09:47:58.299Z,101182.14
2019-04-22T09:50:24.245Z,101179.63
2019-04-22T09:52:54.990Z,101170.40
2019-04-22T09:55:44.764Z,101166.54
2019-04-22T09:58:03.848Z,101155.59
2019-04-22T10:00:43.316Z,101167.70
2019-04-22T10:03:13.654Z,101163.89
2019-04-22T10:05:52.183Z,101158.27
2019-04-22T10:08:24.391Z,101152.13
2019-04-22T10:10:57.721Z,101155.81
2019-04-22T10:13:25.532Z,101158.09
2019-04-22T10:15:59.041Z,101148.41
2019-04-22T10:18:32.515Z,101145.86
2019-04-22T10:21:00.939Z,101145.46
2019-04-22T10:23:41.222Z,101139.72
2019-04-22T10:26:19.494Z,101142.01
2019-04-22T10:28:44.572Z,101132.73
2019-04-22T10:31:19.387Z,101135.02
2019-04-22T10:33:37.723Z,101135.04
2019-04-22T10:35:55.360Z,101128.87
2019-04-22T10:38:26.670Z,101125.80
2019-04-22T10:40:58.710Z,101124.48
2019-04-22T10:43:30.135Z,101125.86
2019-04-22T10:46:02.008Z,101121.93
2019-04-22T10:48:34.564Z,101123.33
2019-04-22T10:51:06.586Z,101122.99
2019-04-22T10:53:37.822Z,101120.88
2019-04-22T10:56:09.372Z,101124.05
2019-04-22T10:58:40.732Z,101117.90
2019-04-22T11:01:11.889Z,101112.55
2019-04-22T11:03:45.635Z,101115.73
2019-04-22T11:06:17.182Z,101106.00
2019-04-22T11:08:52.806Z,101103.83
2019-04-22T11:11:37.548Z,101099.86
2019-04-22T11:13:56.007Z,101092.29
2019-04-22T11:16:27.895Z,101093.70
2019-04-22T11:18:59.381Z,101106.64
2019-04-22T11:21:31.764Z,101088.88
2019-04-22T11:24:04.904Z,101093.83
2019-04-22T11:26:36.882Z,101087.17
2019-04-22T11:29:09.754Z,101087.20
2019-04-22T11:31:42.306Z,101081.94
2019-04-22T11:34:15.135Z,101078.47
2019-04-22T11:36:47.136Z,101076.33
2019-04-22T11:39:19.728Z,101070.61
2019-04-22T11:41:51.915Z,101072.96
2019-04-22T11:44:23.545Z,101059.21
2019-04-22T11:46:54.911Z,101060.64
2019-04-22T11:49:27.809Z,101050.93
2019-04-22T11:51:59.250Z,101051.94
2019-04-22T11:54:30.639Z,101047.13
2019-04-22T11:57:03.093Z,101045.45
2019-04-22T11:59:34.528Z,101041.95
2019-04-22T12:02:06.748Z,101043.81
2019-04-22T12:04:38.167Z,101027.37
2019-04-22T12:07:10.824Z,101034.44
2019-04-22T12:09:43.599Z,101029.09
2019-04-22T12:12:15.969Z,101024.70
2019-04-22T12:14:48.026Z,101025.56
2019-04-22T12:17:20.003Z,101024.23
2019-04-22T12:19:52.625Z,101016.28
2019-04-22T12:22:25.108Z,101012.77
2019-04-22T12:24:56.635Z,101020.44
2019-04-22T12:27:28.788Z,101012.95
2019-04-22T12:30:00.935Z,101014.80
2019-04-22T12:32:33.525Z,101017.59
2019-04-22T12:35:05.426Z,101002.50
2019-04-22T12:37:47.127Z,100995.31
2019-04-22T12:40:10.768Z,100995.53
2019-04-22T12:42:42.024Z,100993.33
2019-04-22T12:45:13.956Z,100984.28
2019-04-22T12:47:46.282Z,100978.35
2019-04-22T12:50:24.122Z,100982.70
2019-04-22T12:52:57.038Z,100979.43
2019-04-22T12:55:24.143Z,100975.69
2019-04-22T12:57:58.661Z,100979.16
2019-04-22T13:00:30.037Z,100972.62
2019-04-22T13:03:01.400Z,100964.16
2019-04-22T13:05:33.381Z,100962.43
2019-04-22T13:08:05.656Z,100958.60
2019-04-22T13:10:48.736Z,100951.69
2019-04-22T13:13:11.278Z,100952.36
2019-04-22T13:15:44.521Z,100943.39
2019-04-22T13:18:23.867Z,100945.75
2019-04-22T13:20:50.610Z,100939.91
2019-04-22T13:23:23.142Z,100935.61
2019-04-22T13:25:54.921Z,100915.86
2019-04-22T13:28:27.246Z,100926.71
2019-04-22T13:31:01.754Z,100932.98
2019-04-22T13:33:32.986Z,100933.23
2019-04-22T13:36:06.150Z,100915.80
2019-04-22T13:38:40.634Z,100915.66
2019-04-22T13:41:28.262Z,100907.50
2019-04-22T13:43:51.018Z,100906.08
2019-04-22T13:46:24.152Z,100905.04
2019-04-22T13:49:28.860Z,100903.69
2019-04-22T13:52:00.942Z,100893.97
2019-04-22T13:56:52.129Z,100895.84
2019-04-22T13:59:27.093Z,100891.02
2019-04-22T14:02:10.468Z,100884.56
2019-04-22T14:04:44.051Z,100884.44
2019-04-22T14:07:18.812Z,100878.88
2019-04-22T14:09:51.195Z,100872.80
2019-04-22T14:12:22.758Z,100876.09
2019-04-22T14:14:56.423Z,100866.44
2019-04-22T14:17:31.502Z,100862.83
2019-04-22T14:20:06.761Z,100865.39
2019-04-22T14:22:40.792Z,100870.26
2019-04-22T14:25:14.628Z,100871.13
2019-04-22T14:27:54.403Z,100864.33
2019-04-22T14:30:21.443Z,100859.10
2019-04-22T14:32:54.195Z,100863.26
2019-04-22T14:35:29.151Z,100862.46
2019-04-22T14:38:04.295Z,100854.62
2019-04-22T14:40:36.616Z,100856.30
2019-04-22T14:43:46.184Z,100857.77
2019-04-22T14:48:46.694Z,100862.86
2019-04-22T14:51:11.227Z,100852.11
2019-04-22T14:53:44.771Z,100851.34
2019-04-22T14:56:00.256Z,100846.42
2019-04-22T14:58:33.040Z,100836.82
2019-04-22T15:01:06.858Z,100836.90
2019-04-22T15:03:44.301Z,100837.22
2019-04-22T15:06:18.061Z,100833.20
2019-04-22T15:08:54.440Z,100834.75
2019-04-22T15:11:28.874Z,100832.61
2019-04-22T15:14:03.240Z,100828.94
2019-04-22T15:17:00.824Z,100822.47
2019-04-22T15:19:47.706Z,100823.31
2019-04-22T15:22:22.756Z,100821.45
2019-04-22T15:24:56.578Z,100828.77
2019-04-22T15:27:30.952Z,100818.19
2019-04-22T15:30:05.734Z,100831.67
2019-04-22T15:32:41.237Z,100816.31
2019-04-22T15:35:25.266Z,100810.42
2019-04-22T15:37:59.263Z,100817.14
2019-04-22T15:40:31.302Z,100817.36
2019-04-22T15:43:04.616Z,100812.96
2019-04-22T15:45:38.779Z,100823.14
2019-04-22T15:48:11.752Z,100818.55
2019-04-22T15:50:44.591Z,100812.31
2019-04-22T15:53:16.105Z,100822.84
2019-04-22T15:55:47.472Z,100816.61
2019-04-22T15:58:19.745Z,100815.63
2019-04-22T16:01:00.032Z,100813.47
2019-04-22T16:03:24.859Z,100807.84
2019-04-22T16:05:57.653Z,100805.80
2019-04-22T16:08:32.441Z,100813.34
2019-04-22T16:11:04.004Z,100812.34
2019-04-22T16:13:38.034Z,100810.99
2019-04-22T16:16:10.249Z,100808.77
2019-04-22T16:18:44.438Z,100810.95
2019-04-22T16:21:30.201Z,100814.36
2019-04-22T16:24:18.104Z,100812.71
2019-04-22T16:26:58.336Z,100811.44
2019-04-22T16:29:31.546Z,100807.50
2019-04-22T16:32:29.755Z,100814.30
2019-04-22T16:35:32.843Z,100814.75
2019-04-22T16:41:24.367Z,100806.92
2019-04-22T16:44:08.940Z,100807.83
2019-04-22T16:46:49.984Z,100814.91
2019-04-22T16:49:23.493Z,100813.08
2019-04-22T16:52:00.294Z,100812.11
2019-04-22T16:54:37.067Z,100814.27
2019-04-22T16:57:12.166Z,100808.27
2019-04-22T17:00:00.637Z,100817.48
2019-04-22T17:02:54.553Z,100810.88
2019-04-22T17:06:07.730Z,100816.86
2019-04-22T17:13:24.540Z,100822.30
2019-04-22T17:19:33.339Z,100823.44
2019-04-22T17:22:11.447Z,100830.45
2019-04-22T17:24:55.784Z,100836.53
2019-04-22T17:27:37.054Z,100830.08
2019-04-22T17:30:12.737Z,100834.81
2019-04-22T17:32:48.276Z,100838.16
2019-04-22T17:35:22.156Z,100851.76
2019-04-22T17:38:02.997Z,100850.22
2019-04-22T17:40:49.580Z,100852.28
2019-04-22T17:43:36.195Z,100861.91
2019-04-22T17:46:24.688Z,100848.72
2019-04-22T17:49:10.478Z,100849.84
2019-04-22T17:52:05.930Z,100857.20
2019-04-22T17:54:38.509Z,100863.73
2019-04-22T17:57:09.851Z,100861.23
2019-04-22T17:59:47.065Z,100865.41
2019-04-22T18:02:25.184Z,100878.05
2019-04-22T18:04:58.529Z,100882.34
2019-04-22T18:07:52.213Z,100881.69
2019-04-22T18:13:27.297Z,100885.56
2019-04-22T18:15:51.543Z,100890.23
2019-04-22T18:18:24.470Z,100882.38
2019-04-22T18:20:52.073Z,100882.27
2019-04-22T18:23:14.602Z,100886.51
2019-04-22T18:26:00.332Z,100883.67
2019-04-22T18:28:41.523Z,100887.11
2019-04-22T18:31:03.207Z,100890.06
2019-04-22T18:33:38.633Z,100892.19
2019-04-22T18:36:09.993Z,100901.30
2019-04-22T18:38:56.454Z,100897.52
2019-04-22T18:41:12.846Z,100895.11
2019-04-22T18:43:53.138Z,100901.13
2019-04-22T18:46:26.353Z,100905.31
2019-04-22T18:49:01.773Z,100907.46
2019-04-22T18:51:42.513Z,100909.05
2019-04-22T18:54:21.315Z,100912.08
2019-04-22T18:56:56.074Z,100914.31
2019-04-22T18:59:18.472Z,100909.83
2019-04-22T19:01:44.258Z,100911.48
2019-04-22T19:04:22.031Z,100908.34
2019-04-22T19:07:07.466Z,100912.27
2019-04-22T19:09:49.894Z,100910.36
2019-04-22T19:15:01.766Z,100907.05
2019-04-22T19:17:35.600Z,100914.92
2019-04-22T19:20:12.497Z,100905.48
2019-04-22T19:22:36.480Z,100906.74
2019-04-22T19:24:59.931Z,100911.02
2019-04-22T19:27:40.430Z,100908.33
2019-04-22T19:30:18.957Z,100902.52
2019-04-22T19:32:51.137Z,100906.93
2019-04-22T19:35:20.305Z,100908.58
2019-04-22T19:37:53.887Z,100910.67
2019-04-22T19:40:47.830Z,100903.86
2019-04-22T19:43:15.502Z,100910.33
2019-04-22T19:45:44.324Z,100912.45
2019-04-22T19:48:27.111Z,100908.36
2019-04-22T19:50:59.046Z,100912.63
2019-04-22T19:53:32.202Z,100911.22
2019-04-22T19:55:56.672Z,100907.97
2019-04-22T19:58:29.237Z,100914.95
2019-04-22T20:01:28.709Z,100909.08
2019-04-22T20:04:23.043Z,100909.00
2019-04-22T20:06:55.165Z,100908.05
2019-04-22T20:09:31.524Z,100909.20
2019-04-22T20:12:01.105Z,100905.97
2019-04-22T20:14:35.439Z,100905.03
2019-04-22T20:17:02.584Z,100907.22
2019-04-22T20:19:46.292Z,100897.44
2019-04-22T20:22:12.694Z,100904.95
2019-04-22T20:24:34.328Z,100897.33
2019-04-22T20:27:28.485Z,100895.85
2019-04-22T20:29:56.369Z,100885.20
2019-04-22T20:32:26.467Z,100886.94
2019-04-22T20:35:04.141Z,100879.39
2019-04-22T20:37:35.109Z,100881.10
2019-04-22T20:40:05.758Z,100878.33
2019-04-22T20:42:43.646Z,100873.86
2019-04-22T20:45:13.123Z,100870.67
2019-04-22T20:47:39.564Z,100870.06
2019-04-22T20:50:21.067Z,100868.17
2019-04-22T20:52:59.280Z,100865.85
2019-04-22T20:55:16.305Z,100861.80
2019-04-22T20:57:57.836Z,100857.24
2019-04-22T21:00:23.863Z,100862.55
2019-04-22T21:02:55.477Z,100850.42
2019-04-22T21:05:27.621Z,100847.23
2019-04-22T21:08:11.537Z,100845.75
2019-04-22T21:10:33.452Z,100844.27
2019-04-22T21:13:12.074Z,100845.47
2019-04-22T21:15:49.368Z,100836.11
2019-04-22T21:18:19.136Z,100836.45
2019-04-22T21:20:57.503Z,100834.59
2019-04-22T21:23:25.673Z,100829.78
2019-04-22T21:26:02.430Z,100829.70
2019-04-22T21:28:34.189Z,100819.05
2019-04-22T21:31:05.813Z,100825.72
2019-04-22T21:33:40.819Z,100825.22
2019-04-22T21:36:22.119Z,100820.72
2019-04-22T21:38:43.490Z,100820.67
2019-04-22T21:41:17.137Z,100810.82
2019-04-22T21:43:52.608Z,100812.06
2019-04-22T21:46:27.866Z,100808.05
2019-04-22T21:48:59.859Z,100803.08
2019-04-22T21:51:34.848Z,100800.80
2019-04-22T21:54:09.621Z,100797.20
2019-04-22T21:57:04.414Z,100792.28
2019-04-22T21:59:19.233Z,100794.72
2019-04-22T22:01:58.634Z,100793.64
2019-04-22T22:04:25.224Z,100789.52
2019-04-22T22:06:54.855Z,100781.44
2019-04-22T22:09:39.879Z,100775.97
2019-04-22T22:12:07.869Z,100772.28
2019-04-22T22:14:39.809Z,100769.55
2019-04-22T22:17:15.832Z,100766.83
2019-04-22T22:19:49.558Z,100765.45
2019-04-22T22:22:38.118Z,100759.58
2019-04-22T22:24:57.233Z,100764.45
2019-04-22T22:27:27.711Z,100754.73
2019-04-22T22:32:35.339Z,100742.65
2019-04-22T22:35:12.022Z,100753.24
2019-04-22T22:37:28.218Z,100745.30
2019-04-22T22:40:00.984Z,100747.12
2019-04-22T22:42:34.537Z,100745.71
2019-04-22T22:45:07.918Z,100738.68
2019-04-22T22:48:01.747Z,100750.02
2019-04-22T22:50:28.270Z,100743.30
2019-04-22T22:53:06.677Z,100741.56
2019-04-22T22:55:33.245Z,100738.87
2019-04-22T22:58:04.098Z,100733.83
2019-04-22T23:00:35.116Z,100740.82
2019-04-22T23:05:54.820Z,100738.58
2019-04-22T23:08:20.338Z,100737.63
2019-04-22T23:11:00.996Z,100730.52
2019-04-22T23:13:26.197Z,100727.78
2019-04-22T23:15:50.736Z,100734.73
2019-04-22T23:18:10.191Z,100727.66
2019-04-22T23:20:45.624Z,100725.01
2019-04-22T23:23:33.342Z,100725.47
2019-04-22T23:26:07.487Z,100721.91
2019-04-22T23:29:02.341Z,100722.77
2019-04-22T23:31:59.688Z,100717.81
2019-04-22T23:34:32.702Z,100716.85
2019-04-22T23:37:22.013Z,100712.88
2019-04-22T23:40:14.045Z,100718.17
2019-04-22T23:42:32.665Z,100713.25
2019-04-22T23:45:10.789Z,100707.95
2019-04-22T23:47:38.550Z,100711.44
2019-04-22T23:50:24.451Z,100709.19
2019-04-22T23:52:54.453Z,100710.02
2019-04-22T23:55:27.808Z,100703.90
2019-04-22T23:58:03.499Z,100707.87
